Koushinmaru No.5 — JL6695 — position and weather

sailwx.info

Track history (hours):
 
Tides and Currents Weather Stations Pressure Air Temp Water Temp Dewpoint Dewpoint Depression Visibility Wind Speed Wind Dir Waves Ship Positions

Koushinmaru No.5

Last reported at 2016-Jun-27 07:33 UTC. Time now 2016-Jun-27 07:48 UTC.
Position N 35°37' E 139°58'.

Length 75 m; draft 4.8 m.

Type: Cargo ship. MMSI: 431301703.

Date/timePositionNaut miles runAvg speedWind from/ knotsBaromVisibWave heightAir tempDewpointWater temp
2016-Jun-27 07:33N 35°37' E 139°58'0 0.0
2016-Jun-27 06:33N 35°37' E 139°58'0 0.0
2016-Jun-27 05:33N 35°37' E 139°58'0 0.0
2016-Jun-27 04:33N 35°37' E 139°58'0 0.0
2016-Jun-27 03:33N 35°37' E 139°58'3 2.9
2016-Jun-27 02:33N 35°35' E 140°01'4 3.7
2016-Jun-27 01:33N 35°37' E 140°05'0 0.0
2016-Jun-27 00:33N 35°37' E 140°05'0 0.0
2016-Jun-26 23:33N 35°37' E 140°05'2 2.3
2016-Jun-26 22:33N 35°35' E 140°03'3 2.6
2016-Jun-26 21:33N 35°33' E 140°00'9 9.4
2016-Jun-26 20:33N 35°28' E 139°51'10 9.9
2016-Jun-26 19:33N 35°20' E 139°44'1010.0
2016-Jun-26 18:33N 35°10' E 139°47'1010.1
2016-Jun-26 17:33N 35°01' E 139°40'237 8.8
2016-Jun-25 14:32N 34°13' E 134°58'9 9.1
2016-Jun-25 13:33N 34°22' E 134°59'10 9.8
2016-Jun-25 12:33N 34°31' E 135°03'9 6.9
2016-Jun-25 11:18N 34°37' E 134°55'6 0.2
2016-Jun-24 03:27N 34°37' E 135°02'1011.6
2016-Jun-24 02:33N 34°36' E 135°14'1110.8
2016-Jun-24 01:32N 34°39' E 135°27'1 0.8
2016-Jun-24 00:33N 34°39' E 135°28'0 0.0
2016-Jun-23 23:33N 34°39' E 135°28'0 0.0
2016-Jun-23 22:33N 34°39' E 135°28'0 0.0
2016-Jun-23 07:05N 34°39' E 135°28'0 0.0
2016-Jun-22 06:09N 34°39' E 135°28'0 0.0
2016-Jun-21 22:33N 34°39' E 135°28'5 5.4
2016-Jun-21 21:33N 34°37' E 135°22'1 1.1
2016-Jun-21 20:33N 34°36' E 135°22'0 0.0
2016-Jun-21 19:33N 34°36' E 135°22'0 0.0
2016-Jun-21 18:33N 34°36' E 135°22'0 0.0
2016-Jun-21 17:33N 34°36' E 135°21'0 0.0
2016-Jun-21 16:33N 34°36' E 135°22'0 0.0
2016-Jun-21 15:29N 34°36' E 135°21'0 0.1
2016-Jun-21 14:33N 34°36' E 135°22'0 0.0
2016-Jun-21 13:31N 34°36' E 135°21'0 0.0
2016-Jun-21 12:33N 34°36' E 135°21'9 9.5
2016-Jun-21 11:33N 34°34' E 135°10'11 8.3
2016-Jun-21 10:16N 34°37' E 134°58'1 0.1
2016-Jun-20 19:32N 34°38' E 134°58'7 6.9
2016-Jun-20 18:33N 34°34' E 135°05'1010.3
2016-Jun-20 17:33N 34°24' E 135°02'10 9.6
2016-Jun-20 16:30N 34°14' E 134°59'260 8.4
2016-Jun-19 09:29N 35°00' E 140°10'22 9.1
2016-Jun-19 07:05N 35°15' E 140°30'910.1
2016-Jun-19 06:11N 35°23' E 140°36'710.4
2016-Jun-19 05:31N 35°28' E 140°41'1110.3
2016-Jun-19 04:29N 35°36' E 140°50'  
Track history (hours):
 
Tides and Currents Weather Stations Pressure Air Temp Water Temp Dewpoint Dewpoint Depression Visibility Wind Speed Wind Dir Waves Ship Positions

Koushinmaru No.5

Last reported at 2016-Jun-27 07:33 UTC. Time now 2016-Jun-27 07:48 UTC.
Position N 35°37' E 139°58'.

Length 75 m; draft 4.8 m.

Type: Cargo ship. MMSI: 431301703.

Date/timePositionNaut miles runAvg speedWind from/ knotsBaromVisibWave heightAir tempDewpointWater temp
2016-Jun-27 07:33N 35°37' E 139°58'0 0.0
2016-Jun-27 06:33N 35°37' E 139°58'0 0.0
2016-Jun-27 05:33N 35°37' E 139°58'0 0.0
2016-Jun-27 04:33N 35°37' E 139°58'0 0.0
2016-Jun-27 03:33N 35°37' E 139°58'3 2.9
2016-Jun-27 02:33N 35°35' E 140°01'4 3.7
2016-Jun-27 01:33N 35°37' E 140°05'0 0.0
2016-Jun-27 00:33N 35°37' E 140°05'0 0.0
2016-Jun-26 23:33N 35°37' E 140°05'2 2.3
2016-Jun-26 22:33N 35°35' E 140°03'3 2.6
2016-Jun-26 21:33N 35°33' E 140°00'9 9.4
2016-Jun-26 20:33N 35°28' E 139°51'10 9.9
2016-Jun-26 19:33N 35°20' E 139°44'1010.0
2016-Jun-26 18:33N 35°10' E 139°47'1010.1
2016-Jun-26 17:33N 35°01' E 139°40'237 8.8
2016-Jun-25 14:32N 34°13' E 134°58'9 9.1
2016-Jun-25 13:33N 34°22' E 134°59'10 9.8
2016-Jun-25 12:33N 34°31' E 135°03'9 6.9
2016-Jun-25 11:18N 34°37' E 134°55'6 0.2
2016-Jun-24 03:27N 34°37' E 135°02'1011.6
2016-Jun-24 02:33N 34°36' E 135°14'1110.8
2016-Jun-24 01:32N 34°39' E 135°27'1 0.8
2016-Jun-24 00:33N 34°39' E 135°28'0 0.0
2016-Jun-23 23:33N 34°39' E 135°28'0 0.0
2016-Jun-23 22:33N 34°39' E 135°28'0 0.0
2016-Jun-23 07:05N 34°39' E 135°28'0 0.0
2016-Jun-22 06:09N 34°39' E 135°28'0 0.0
2016-Jun-21 22:33N 34°39' E 135°28'5 5.4
2016-Jun-21 21:33N 34°37' E 135°22'1 1.1
2016-Jun-21 20:33N 34°36' E 135°22'0 0.0
2016-Jun-21 19:33N 34°36' E 135°22'0 0.0
2016-Jun-21 18:33N 34°36' E 135°22'0 0.0
2016-Jun-21 17:33N 34°36' E 135°21'0 0.0
2016-Jun-21 16:33N 34°36' E 135°22'0 0.0
2016-Jun-21 15:29N 34°36' E 135°21'0 0.1
2016-Jun-21 14:33N 34°36' E 135°22'0 0.0
2016-Jun-21 13:31N 34°36' E 135°21'0 0.0
2016-Jun-21 12:33N 34°36' E 135°21'9 9.5
2016-Jun-21 11:33N 34°34' E 135°10'11 8.3
2016-Jun-21 10:16N 34°37' E 134°58'1 0.1
2016-Jun-20 19:32N 34°38' E 134°58'7 6.9
2016-Jun-20 18:33N 34°34' E 135°05'1010.3
2016-Jun-20 17:33N 34°24' E 135°02'10 9.6
2016-Jun-20 16:30N 34°14' E 134°59'260 8.4
2016-Jun-19 09:29N 35°00' E 140°10'22 9.1
2016-Jun-19 07:05N 35°15' E 140°30'910.1
2016-Jun-19 06:11N 35°23' E 140°36'710.4
2016-Jun-19 05:31N 35°28' E 140°41'1110.3
2016-Jun-19 04:29N 35°36' E 140°50'  

Dump ship's entire track history